Time;durP1;ratioP1;P1;durP2;ratioP2;P2;SDS_P1;SDS_P2;PMS_P1;PMS_P2;Temp;Humidity;BMP_temperature;BMP_pressure;BME280_temperature;BME280_humidity;BME280_pressure;Samples;Min_cycle;Max_cycle;Signal;HPM_P1;HPM_P2
2021/11/29 00:01:04;;;;;;;;;15.40;15.40;;;;;6.62;58.69;100115.31;2092528;28;45562;-59
2021/11/29 00:02:09;;;;;;;;;14.80;14.00;;;;;6.61;58.55;100110.06;2083480;28;48543;-58
2021/11/29 00:03:12;;;;;;;;;16.60;14.00;;;;;6.60;58.50;100110.94;2075373;28;48078;-58
2021/11/29 00:04:13;;;;;;;;;15.80;14.20;;;;;6.56;58.17;100118.03;2086581;28;47407;-58
2021/11/29 00:05:18;;;;;;;;;16.50;14.00;;;;;6.56;58.43;100120.66;2089197;28;45043;-58
2021/11/29 00:06:20;;;;;;;;;14.80;13.20;;;;;6.55;58.73;100121.56;2083965;28;47104;-58
2021/11/29 00:07:20;;;;;;;;;21.00;15.20;;;;;6.54;58.59;100118.94;2090312;28;47362;-62
2021/11/29 00:08:21;;;;;;;;;14.25;14.25;;;;;6.53;58.35;100123.34;2092325;28;45381;-60
2021/11/29 00:09:22;;;;;;;;;14.75;14.00;;;;;6.52;58.16;100118.97;2092545;28;46101;-61
2021/11/29 00:10:23;;;;;;;;;18.00;18.00;;;;;6.52;58.58;100121.59;2093533;28;45595;-59
2021/11/29 00:11:23;;;;;;;;;13.40;13.40;;;;;6.51;58.78;100121.63;2094655;28;47438;-59
2021/11/29 00:12:24;;;;;;;;;15.50;14.00;;;;;6.51;58.89;100124.28;2100317;27;47769;-59
2021/11/29 00:13:24;;;;;;;;;13.25;11.50;;;;;6.51;58.64;100124.28;2092714;28;48184;-60
2021/11/29 00:14:25;;;;;;;;;14.00;12.50;;;;;6.51;58.43;100116.38;2092481;28;45240;-60
2021/11/29 00:15:27;;;;;;;;;16.75;16.00;;;;;6.51;58.49;100122.50;2091596;28;47316;-59
2021/11/29 00:16:27;;;;;;;;;16.00;15.40;;;;;6.49;58.49;100117.25;2091755;28;46422;-60
2021/11/29 00:17:28;;;;;;;;;12.00;12.00;;;;;6.51;58.87;100121.63;2091423;28;47582;-59
2021/11/29 00:18:28;;;;;;;;;15.25;13.75;;;;;6.51;58.85;100129.53;2092039;28;47904;-59
2021/11/29 00:19:29;;;;;;;;;13.00;12.75;;;;;6.50;58.59;100120.78;2092249;28;47133;-59
2021/11/29 00:20:30;;;;;;;;;15.00;13.75;;;;;6.49;58.76;100125.16;2100047;27;45288;-59
2021/11/29 00:21:32;;;;;;;;;12.00;11.00;;;;;6.50;58.92;100120.78;2083571;28;47592;-59
2021/11/29 00:22:32;;;;;;;;;13.20;13.20;;;;;6.49;58.72;100121.66;2087535;28;48014;-59
2021/11/29 00:23:33;;;;;;;;;16.50;15.75;;;;;6.49;58.58;100130.44;2074749;28;48133;-59
2021/11/29 00:24:34;;;;;;;;;15.25;14.00;;;;;6.48;58.57;100120.78;2083259;28;46206;-59
2021/11/29 00:25:34;;;;;;;;;20.50;17.00;;;;;6.49;58.69;100124.31;2091969;28;47038;-59
2021/11/29 00:26:34;;;;;;;;;16.75;16.00;;;;;6.51;58.88;100132.19;2092020;28;47346;-59
2021/11/29 00:27:37;;;;;;;;;14.50;14.25;;;;;6.49;58.95;100132.22;2091366;28;47257;-59
2021/11/29 00:28:38;;;;;;;;;14.00;12.60;;;;;6.50;58.94;100128.69;2091322;28;48405;-58
2021/11/29 00:29:39;;;;;;;;;14.00;14.00;;;;;6.49;58.92;100129.56;2092026;28;46950;-59
2021/11/29 00:30:40;;;;;;;;;20.00;16.00;;;;;6.49;58.56;100134.84;2091052;28;46853;-59
2021/11/29 00:31:41;;;;;;;;;15.00;14.00;;;;;6.47;58.59;100133.97;2091437;28;48110;-59
2021/11/29 00:32:42;;;;;;;;;14.75;13.75;;;;;6.47;58.54;100124.28;2090835;28;48429;-59
2021/11/29 00:33:42;;;;;;;;;14.40;13.40;;;;;6.47;59.03;100133.97;2091327;28;48378;-59
2021/11/29 00:34:43;;;;;;;;;15.25;15.25;;;;;6.47;58.75;100133.97;2084194;28;48079;-58
2021/11/29 00:35:44;;;;;;;;;15.00;14.00;;;;;6.46;58.74;100133.09;2091964;28;47281;-58
2021/11/29 00:36:45;;;;;;;;;9.20;9.00;;;;;6.46;58.53;100135.72;2089936;28;47148;-58
2021/11/29 00:37:45;;;;;;;;;13.75;13.75;;;;;6.46;58.61;100137.50;2085758;28;48044;-58
2021/11/29 00:38:46;;;;;;;;;11.25;11.25;;;;;6.46;58.92;100142.78;2090601;28;47182;-58
2021/11/29 00:39:47;;;;;;;;;11.50;11.50;;;;;6.45;58.92;100134.00;2087266;28;47398;-59
2021/11/29 00:40:47;;;;;;;;;13.00;13.00;;;;;6.46;58.58;100137.50;2091660;28;46266;-59
2021/11/29 00:41:48;;;;;;;;;14.00;14.00;;;;;6.45;58.66;100138.41;2092003;28;46039;-58
2021/11/29 00:42:48;;;;;;;;;15.25;14.50;;;;;6.45;58.96;100139.25;2087334;27;47147;-58
2021/11/29 00:43:49;;;;;;;;;14.00;13.25;;;;;6.46;58.58;100142.78;2091795;28;47170;-58
2021/11/29 00:44:49;;;;;;;;;16.00;15.75;;;;;6.45;58.71;100139.25;2091339;28;47419;-58
2021/11/29 00:45:50;;;;;;;;;13.50;13.00;;;;;6.44;58.45;100139.28;2089234;28;46491;-60
2021/11/29 00:46:50;;;;;;;;;13.00;11.00;;;;;6.44;58.68;100137.53;2090761;28;47784;-64
2021/11/29 00:47:51;;;;;;;;;10.75;10.75;;;;;6.43;58.56;100141.06;2091178;28;45753;-60
2021/11/29 00:48:52;;;;;;;;;15.75;13.00;;;;;6.44;58.78;100134.88;2091104;28;48655;-60
2021/11/29 00:49:52;;;;;;;;;12.50;12.50;;;;;6.45;59.06;100138.41;2091717;27;46844;-59
2021/11/29 00:50:53;;;;;;;;;14.75;13.75;;;;;6.44;58.78;100140.16;2091676;28;48173;-58
2021/11/29 00:51:53;;;;;;;;;14.00;14.00;;;;;6.44;58.91;100144.56;2091792;27;48213;-60
2021/11/29 00:52:54;;;;;;;;;15.75;15.75;;;;;6.44;58.82;100144.56;2091542;28;48216;-60
2021/11/29 00:53:54;;;;;;;;;14.00;11.75;;;;;6.44;58.73;100155.09;2091840;27;47468;-59
2021/11/29 00:54:55;;;;;;;;;16.00;13.50;;;;;6.44;58.76;100152.47;2086009;28;45326;-59
2021/11/29 00:55:55;;;;;;;;;15.50;15.50;;;;;6.43;58.78;100154.22;2083756;28;47871;-59
2021/11/29 00:56:56;;;;;;;;;12.50;12.00;;;;;6.44;58.73;100157.75;2083662;28;45224;-60
2021/11/29 00:57:56;;;;;;;;;13.50;12.75;;;;;6.44;58.68;100152.47;2085050;28;48187;-59
2021/11/29 00:58:57;;;;;;;;;11.25;11.00;;;;;6.43;58.52;100151.59;2083357;28;47228;-60
2021/11/29 00:59:58;;;;;;;;;11.25;11.25;;;;;6.42;58.65;100157.75;2098017;28;47301;-58
2021/11/29 01:00:58;;;;;;;;;15.00;14.00;;;;;6.43;58.85;100154.22;2082502;28;46215;-58
2021/11/29 01:01:58;;;;;;;;;18.00;17.50;;;;;6.43;58.99;100166.53;2074659;28;47242;-58
2021/11/29 01:02:59;;;;;;;;;11.50;11.50;;;;;6.43;59.21;100159.50;2099361;27;45342;-58
2021/11/29 01:04:00;;;;;;;;;14.25;13.75;;;;;6.43;58.87;100161.28;2100534;27;47301;-58
2021/11/29 01:05:00;;;;;;;;;14.75;13.75;;;;;6.43;58.80;100156.88;2087933;28;47108;-60
2021/11/29 01:06:00;;;;;;;;;8.75;3.50;;;;;6.43;59.01;100167.41;2091476;28;48182;-59
2021/11/29 01:07:01;;;;;;;;;14.75;9.00;;;;;6.42;58.58;100164.81;2090282;28;47171;-58
2021/11/29 01:08:03;;;;;;;;;15.50;14.00;;;;;6.41;58.70;100163.94;2091288;27;45639;-58
2021/11/29 01:09:03;;;;;;;;;13.00;12.40;;;;;6.41;58.71;100163.94;2091452;27;45512;-58
2021/11/29 01:10:06;;;;;;;;;13.75;13.75;;;;;6.41;58.65;100163.94;2091256;28;47274;-59
2021/11/29 01:11:08;;;;;;;;;13.00;11.00;;;;;6.40;58.47;100167.47;2085176;28;47453;-58
2021/11/29 01:12:09;;;;;;;;;14.20;12.80;;;;;6.40;58.90;100169.22;2084265;28;48270;-59
2021/11/29 01:13:10;;;;;;;;;18.40;14.80;;;;;6.39;59.02;100167.47;2089415;28;45433;-58
2021/11/29 01:14:10;;;;;;;;;12.25;12.25;;;;;6.37;58.94;100170.16;2087614;28;48347;-58
2021/11/29 01:15:17;;;;;;;;;16.00;16.00;;;;;6.37;58.96;100172.78;2091686;27;46127;-59
2021/11/29 01:16:17;;;;;;;;;16.00;14.00;;;;;6.36;58.93;100176.31;2099349;28;48492;-58
2021/11/29 01:17:18;;;;;;;;;13.75;13.75;;;;;6.36;58.82;100170.16;2099179;28;45667;-58
2021/11/29 01:18:19;;;;;;;;;13.00;10.75;;;;;6.35;58.90;100171.94;2091497;27;46805;-58
2021/11/29 01:19:19;;;;;;;;;15.00;14.75;;;;;6.36;58.47;100176.31;2091315;28;47586;-58
2021/11/29 01:20:20;;;;;;;;;16.00;14.50;;;;;6.35;58.77;100173.66;2091487;28;47042;-60
2021/11/29 01:21:20;;;;;;;;;16.75;14.25;;;;;6.34;58.84;100177.19;2091507;27;47434;-59
2021/11/29 01:22:21;;;;;;;;;14.00;14.00;;;;;6.33;58.85;100178.97;2091015;28;48195;-58
2021/11/29 01:23:22;;;;;;;;;14.50;13.00;;;;;6.32;58.61;100182.50;2098884;27;46987;-58
2021/11/29 01:24:23;;;;;;;;;14.00;10.50;;;;;6.31;58.92;100183.38;2107782;27;47202;-58
2021/11/29 01:25:23;;;;;;;;;13.00;13.00;;;;;6.33;58.87;100188.63;2091288;28;47983;-58
2021/11/29 01:26:24;;;;;;;;;11.25;11.25;;;;;6.31;58.88;100183.38;2091765;28;47302;-58
2021/11/29 01:27:25;;;;;;;;;12.00;12.00;;;;;6.31;58.83;100185.16;2090849;28;47267;-58
2021/11/29 01:28:25;;;;;;;;;15.20;13.20;;;;;6.31;59.04;100188.66;2091363;28;47411;-58
2021/11/29 01:29:26;;;;;;;;;13.25;13.25;;;;;6.30;58.85;100191.31;2090788;28;47139;-58
2021/11/29 01:30:27;;;;;;;;;11.25;11.25;;;;;6.30;58.60;100186.03;2091206;28;45368;-58
2021/11/29 01:31:28;;;;;;;;;14.75;14.00;;;;;6.29;58.89;100187.81;2093943;27;47272;-58
2021/11/29 01:32:28;;;;;;;;;15.00;15.00;;;;;6.28;58.79;100188.69;2090094;28;45331;-59
2021/11/29 01:33:29;;;;;;;;;14.50;14.50;;;;;6.29;59.34;100192.22;2090326;28;45632;-58
2021/11/29 01:34:30;;;;;;;;;13.00;12.00;;;;;6.28;59.01;100188.69;2091541;28;47222;-58
2021/11/29 01:35:30;;;;;;;;;13.50;12.25;;;;;6.29;58.98;100192.22;2101628;27;46111;-57
2021/11/29 01:36:31;;;;;;;;;13.25;12.75;;;;;6.30;59.13;100193.94;2101970;27;47013;-58
2021/11/29 01:37:31;;;;;;;;;11.25;11.25;;;;;6.30;58.74;100186.03;2088143;28;46046;-57
2021/11/29 01:38:32;;;;;;;;;15.75;14.25;;;;;6.32;59.39;100194.78;2090972;28;48528;-58
2021/11/29 01:39:32;;;;;;;;;12.50;12.50;;;;;6.32;59.41;100195.66;2091160;28;48142;-57
2021/11/29 01:40:35;;;;;;;;;14.25;13.75;;;;;6.33;59.28;100197.41;2091526;28;47323;-58
2021/11/29 01:41:37;;;;;;;;;15.60;15.60;;;;;6.31;59.32;100196.56;2098893;27;48155;-58
2021/11/29 01:42:52;;;;;;;;;14.00;14.00;;;;;6.32;58.96;100200.94;2095751;28;47366;-58
2021/11/29 01:43:52;;;;;;;;;12.20;12.20;;;;;6.32;58.94;100197.44;2083138;28;47243;-58
2021/11/29 01:44:53;;;;;;;;;12.00;12.00;;;;;6.32;59.05;100200.06;2087266;28;45384;-58
2021/11/29 01:45:55;;;;;;;;;13.75;13.75;;;;;6.31;59.41;100201.84;2090711;28;47279;-58
2021/11/29 01:46:56;;;;;;;;;18.00;16.40;;;;;6.31;58.92;100199.19;2091521;28;48507;-59
2021/11/29 01:47:57;;;;;;;;;16.60;14.20;;;;;6.31;58.92;100196.56;2098991;27;46299;-58
2021/11/29 01:48:58;;;;;;;;;16.50;15.50;;;;;6.31;59.13;100195.69;2090724;28;47230;-58
2021/11/29 01:49:58;;;;;;;;;14.50;14.50;;;;;6.30;58.92;100196.59;2089337;28;47183;-59
2021/11/29 01:51:00;;;;;;;;;14.50;11.75;;;;;6.29;59.27;100203.63;2091436;28;47220;-58
2021/11/29 01:52:00;;;;;;;;;15.60;14.80;;;;;6.28;59.20;100204.50;2082360;28;48734;-58
2021/11/29 01:53:01;;;;;;;;;16.50;14.50;;;;;6.27;58.85;100204.53;2082252;28;47085;-58
2021/11/29 01:54:02;;;;;;;;;14.00;14.00;;;;;6.26;59.04;100208.06;2091250;28;47524;-58
2021/11/29 01:55:03;;;;;;;;;15.40;13.80;;;;;6.26;58.89;100208.06;2091337;28;47265;-58
2021/11/29 01:56:04;;;;;;;;;14.20;12.80;;;;;6.26;59.01;100211.56;2091228;28;45658;-58
2021/11/29 01:57:05;;;;;;;;;14.80;13.80;;;;;6.25;58.98;100208.97;2090693;28;47285;-58
2021/11/29 01:58:06;;;;;;;;;13.50;11.25;;;;;6.24;59.03;100209.84;2090552;28;45369;-58
2021/11/29 01:59:06;;;;;;;;;16.20;16.20;;;;;6.23;58.84;100211.63;2091246;27;47171;-58
2021/11/29 02:00:11;;;;;;;;;16.00;14.25;;;;;6.23;58.82;100208.09;2091304;28;48166;-58
2021/11/29 02:01:15;;;;;;;;;12.60;12.40;;;;;6.22;58.80;100211.59;2091347;28;47994;-59
2021/11/29 02:02:17;;;;;;;;;16.00;13.60;;;;;6.19;58.79;100213.38;2091327;28;45228;-60
2021/11/29 02:03:18;;;;;;;;;13.60;11.80;;;;;6.19;59.33;100216.03;2091447;28;45325;-60
2021/11/29 02:04:19;;;;;;;;;15.80;15.80;;;;;6.19;59.20;100208.13;2091517;28;47297;-63
2021/11/29 02:05:20;;;;;;;;;13.00;12.50;;;;;6.19;58.91;100215.16;2075147;28;48233;-59
2021/11/29 02:06:21;;;;;;;;;16.00;14.80;;;;;6.18;59.01;100203.75;2090556;28;45715;-59
2021/11/29 02:07:21;;;;;;;;;11.75;11.50;;;;;6.17;59.21;100209.91;2090168;28;47106;-59
2021/11/29 02:08:23;;;;;;;;;13.25;13.25;;;;;6.17;58.64;100207.28;2091328;28;48221;-59
2021/11/29 02:09:23;;;;;;;;;11.80;11.80;;;;;6.18;59.08;100213.41;2091092;28;46463;-61
2021/11/29 02:10:25;;;;;;;;;15.50;13.25;;;;;6.17;58.91;100201.13;2099419;28;47351;-59
2021/11/29 02:11:26;;;;;;;;;10.40;10.40;;;;;6.17;58.88;100211.66;2097810;28;47357;-59
2021/11/29 02:12:26;;;;;;;;;14.80;14.00;;;;;6.16;58.94;100208.16;2090783;28;47953;-59
2021/11/29 02:13:28;;;;;;;;;12.25;12.25;;;;;6.17;59.07;100215.19;2091384;28;45319;-59
2021/11/29 02:14:28;;;;;;;;;13.80;13.20;;;;;6.17;58.91;100215.19;2091603;28;45568;-60
2021/11/29 02:15:29;;;;;;;;;14.25;13.75;;;;;6.17;59.22;100219.56;2091078;28;47191;-59
2021/11/29 02:16:31;;;;;;;;;14.25;13.25;;;;;6.16;59.41;100216.06;2090947;28;48404;-58
2021/11/29 02:17:31;;;;;;;;;13.60;11.60;;;;;6.16;59.10;100220.47;2090304;28;47415;-59
2021/11/29 02:18:33;;;;;;;;;14.25;11.25;;;;;6.15;59.06;100218.72;2091453;28;46099;-62
2021/11/29 02:19:41;;;;;;;;;12.80;11.40;;;;;6.15;59.02;100224.00;2090860;27;47367;-58
2021/11/29 02:20:59;;;;;;;;;10.60;10.60;;;;;6.14;59.27;100222.25;2090986;28;47258;-59
2021/11/29 02:22:00;;;;;;;;;9.40;9.40;;;;;6.14;59.14;100222.25;2087152;28;47679;-59
2021/11/29 02:23:01;;;;;;;;;8.25;8.00;;;;;6.14;59.40;100225.75;2083079;28;46055;-59
2021/11/29 02:24:05;;;;;;;;;13.60;13.60;;;;;6.15;59.36;100231.91;2090969;28;47426;-59
2021/11/29 02:25:06;;;;;;;;;10.00;9.00;;;;;6.15;59.59;100224.88;2094169;28;47941;-59
2021/11/29 02:26:07;;;;;;;;;12.80;12.80;;;;;6.14;58.87;100228.41;2088910;27;47199;-59
2021/11/29 02:27:07;;;;;;;;;11.50;11.50;;;;;6.14;59.12;100232.78;2094197;28;48174;-59
2021/11/29 02:28:08;;;;;;;;;9.00;9.00;;;;;6.13;59.19;100229.28;2092713;28;48055;-59
2021/11/29 02:29:14;;;;;;;;;12.25;12.25;;;;;6.14;59.26;100236.28;2102516;27;48176;-59
2021/11/29 02:30:16;;;;;;;;;14.40;14.40;;;;;6.13;59.18;100234.56;2103137;27;45326;-58
2021/11/29 02:31:21;;;;;;;;;13.60;13.00;;;;;6.13;59.23;100236.31;2092104;28;47147;-59
2021/11/29 02:32:22;;;;;;;;;13.00;12.40;;;;;6.13;59.11;100233.69;2102564;27;47564;-59
2021/11/29 02:33:26;;;;;;;;;10.60;10.60;;;;;6.12;59.44;100229.31;2104103;27;46022;-60
2021/11/29 02:34:30;;;;;;;;;12.80;12.80;;;;;6.14;59.44;100240.69;2090919;28;45350;-59
2021/11/29 02:35:31;;;;;;;;;11.80;10.00;;;;;6.13;59.09;100236.31;2094688;27;48283;-58
2021/11/29 02:36:31;;;;;;;;;11.00;10.00;;;;;6.13;59.08;100238.94;2095513;28;47616;-60
2021/11/29 02:37:32;;;;;;;;;9.00;9.00;;;;;6.12;59.48;100231.94;2091875;27;47476;-58
2021/11/29 02:38:33;;;;;;;;;9.75;9.75;;;;;6.13;59.33;100241.59;2095822;27;45301;-59
2021/11/29 02:39:35;;;;;;;;;9.25;9.25;;;;;6.13;59.55;100236.31;2093711;27;46859;-59
2021/11/29 02:40:35;;;;;;;;;11.80;11.80;;;;;6.12;59.47;100234.56;2100812;27;48711;-59
2021/11/29 02:41:36;;;;;;;;;11.25;11.25;;;;;6.11;58.96;100236.34;2103858;27;47839;-58
2021/11/29 02:42:37;;;;;;;;;9.40;9.40;;;;;6.11;59.11;100246.88;2093221;28;45165;-59
2021/11/29 02:43:38;;;;;;;;;10.00;9.50;;;;;6.11;59.26;100238.97;2095677;27;47682;-58
2021/11/29 02:44:40;;;;;;;;;10.20;10.20;;;;;6.12;59.66;100239.84;2097137;28;46317;-59
2021/11/29 02:45:41;;;;;;;;;9.00;9.00;;;;;6.11;59.43;100241.59;2092833;28;47383;-58
2021/11/29 02:46:42;;;;;;;;;11.75;11.75;;;;;6.11;58.98;100238.09;2097066;28;47212;-59
2021/11/29 02:47:43;;;;;;;;;14.60;13.00;;;;;6.10;59.38;100239.00;2095980;28;47537;-58
2021/11/29 02:48:46;;;;;;;;;12.00;11.00;;;;;6.09;59.29;100251.25;2093913;27;47148;-58
2021/11/29 02:49:48;;;;;;;;;9.60;9.60;;;;;6.09;59.30;100234.59;2097651;27;47814;-59
2021/11/29 02:50:48;;;;;;;;;10.60;9.80;;;;;6.08;59.04;100241.63;2094799;28;47397;-59
2021/11/29 02:51:52;;;;;;;;;13.50;12.00;;;;;6.07;59.19;100242.50;2094733;27;45443;-59
2021/11/29 02:52:53;;;;;;;;;10.00;10.00;;;;;6.08;59.22;100246.00;2096497;28;46844;-59
2021/11/29 02:53:59;;;;;;;;;10.25;10.25;;;;;6.07;59.58;100250.41;2094033;28;48429;-59
2021/11/29 02:55:00;;;;;;;;;11.20;10.00;;;;;6.09;59.19;100253.03;2089529;28;47539;-59
2021/11/29 02:56:00;;;;;;;;;8.75;8.75;;;;;6.08;59.14;100240.75;2091786;27;47597;-60
2021/11/29 02:57:04;;;;;;;;;15.25;13.50;;;;;6.09;59.61;100248.63;2091517;28;47266;-59
2021/11/29 02:58:06;;;;;;;;;12.60;10.00;;;;;6.08;59.42;100251.28;2091548;28;48668;-59
2021/11/29 02:59:28;;;;;;;;;10.60;9.40;;;;;6.07;59.58;100247.78;2084101;28;48369;-59
2021/11/29 03:00:28;;;;;;;;;10.00;9.40;;;;;6.07;59.16;100254.81;2084474;28;47485;-59
2021/11/29 03:01:29;;;;;;;;;13.25;9.75;;;;;6.07;59.58;100257.44;2102009;27;48265;-59
2021/11/29 03:02:32;;;;;;;;;10.00;9.00;;;;;6.07;59.36;100257.44;2100242;28;48481;-59
2021/11/29 03:03:32;;;;;;;;;11.80;9.40;;;;;6.08;59.64;100259.19;2091665;28;47474;-59
2021/11/29 03:04:34;;;;;;;;;13.50;10.75;;;;;6.06;59.34;100264.47;2091703;28;45509;-59
2021/11/29 03:05:35;;;;;;;;;8.80;8.80;;;;;6.08;59.59;100264.44;2084002;28;48271;-59
2021/11/29 03:06:35;;;;;;;;;11.20;10.00;;;;;6.08;59.83;100269.72;2091584;28;48366;-59
2021/11/29 03:07:36;;;;;;;;;13.75;13.75;;;;;6.06;58.93;100268.88;2091665;28;46756;-58
2021/11/29 03:08:39;;;;;;;;;13.00;12.75;;;;;6.05;59.18;100269.75;2084177;28;47060;-59
2021/11/29 03:09:40;;;;;;;;;10.40;9.20;;;;;6.04;59.13;100268.88;2090925;28;48165;-59
2021/11/29 03:10:41;;;;;;;;;11.20;11.20;;;;;6.04;59.23;100268.88;2092072;27;48292;-61
2021/11/29 03:11:42;;;;;;;;;11.00;10.00;;;;;6.04;59.30;100268.03;2091845;28;47244;-59
2021/11/29 03:12:42;;;;;;;;;9.75;9.25;;;;;6.05;59.58;100277.66;2092386;28;48864;-59
2021/11/29 03:13:44;;;;;;;;;9.00;9.00;;;;;6.05;59.27;100275.03;2092413;28;47181;-59
2021/11/29 03:14:44;;;;;;;;;10.40;10.40;;;;;6.03;59.54;100269.78;2092289;28;48216;-59
2021/11/29 03:15:48;;;;;;;;;11.50;10.25;;;;;6.05;59.24;100267.13;2091736;28;47273;-59
2021/11/29 03:16:50;;;;;;;;;7.60;7.00;;;;;6.04;59.71;100274.16;2092073;28;47496;-59
2021/11/29 03:17:50;;;;;;;;;10.20;8.80;;;;;6.05;59.32;100270.63;2099815;28;48259;-60
2021/11/29 03:18:51;;;;;;;;;9.00;8.25;;;;;6.06;59.53;100271.50;2092334;28;47416;-59
2021/11/29 03:19:51;;;;;;;;;10.00;10.00;;;;;6.05;59.23;100277.66;2108574;27;47018;-59
2021/11/29 03:20:52;;;;;;;;;9.00;8.75;;;;;6.05;59.51;100282.94;2108394;27;47279;-59
2021/11/29 03:21:52;;;;;;;;;9.75;9.75;;;;;6.05;59.22;100281.16;2092282;27;46830;-59
2021/11/29 03:22:53;;;;;;;;;10.75;10.75;;;;;6.05;59.83;100280.28;2092293;28;48000;-58
2021/11/29 03:23:59;;;;;;;;;9.00;8.75;;;;;6.05;59.48;100286.44;2092323;28;47300;-59
2021/11/29 03:24:59;;;;;;;;;13.00;11.80;;;;;6.05;59.63;100282.94;2092275;28;47301;-59
2021/11/29 03:26:05;;;;;;;;;10.75;10.75;;;;;6.05;59.46;100288.19;2091564;28;47307;-59
2021/11/29 03:27:05;;;;;;;;;8.00;7.40;;;;;6.03;59.27;100293.50;2092127;28;48481;-60
2021/11/29 03:28:06;;;;;;;;;13.25;13.25;;;;;6.02;59.40;100291.75;2092548;28;45553;-59
2021/11/29 03:29:12;;;;;;;;;13.33;12.00;;;;;6.04;59.39;100297.00;2092182;28;45350;-59
2021/11/29 03:30:13;;;;;;;;;11.60;9.80;;;;;6.01;59.82;100294.41;2092170;28;47227;-59
2021/11/29 03:31:15;;;;;;;;;11.67;10.00;;;;;6.01;59.60;100297.91;2091617;28;48583;-59
2021/11/29 03:32:18;;;;;;;;;15.60;9.80;;;;;6.01;59.57;100295.28;2099974;27;47217;-59
2021/11/29 03:33:19;;;;;;;;;8.40;8.00;;;;;6.01;59.57;100302.31;2107747;27;47989;-59
2021/11/29 03:34:22;;;;;;;;;9.50;9.00;;;;;6.01;59.67;100297.03;2092403;27;46918;-59
2021/11/29 03:35:22;;;;;;;;;10.60;9.80;;;;;6.01;59.84;100304.94;2092177;28;47854;-59
2021/11/29 03:36:25;;;;;;;;;7.75;7.75;;;;;5.99;59.65;100299.69;2099847;28;47272;-59
2021/11/29 03:37:26;;;;;;;;;9.60;8.60;;;;;5.99;59.48;100299.69;2091913;28;46293;-59
2021/11/29 03:38:27;;;;;;;;;9.25;8.75;;;;;5.99;59.80;100304.09;2090146;28;47795;-59
2021/11/29 03:39:29;;;;;;;;;2.20;2.00;;;;;5.98;59.62;100305.84;2091345;28;46708;-60
2021/11/29 03:40:30;;;;;;;;;9.80;9.80;;;;;5.98;59.51;100305.84;2091429;28;48556;-59
2021/11/29 03:41:31;;;;;;;;;9.60;8.60;;;;;5.97;59.42;100312.00;2091335;28;48452;-59
2021/11/29 03:42:32;;;;;;;;;8.00;7.00;;;;;5.98;59.55;100307.59;2089276;28;47431;-59
2021/11/29 03:43:32;;;;;;;;;8.25;8.25;;;;;5.97;59.74;100313.72;2092291;28;47696;-59
2021/11/29 03:44:34;;;;;;;;;9.00;9.00;;;;;5.96;59.45;100310.22;2090752;28;48058;-59
2021/11/29 03:45:35;;;;;;;;;12.00;12.00;;;;;5.95;59.67;100315.50;2091262;28;47760;-59
2021/11/29 03:46:35;;;;;;;;;1.00;1.00;;;;;5.96;59.81;100319.88;2092194;28;45387;-59
2021/11/29 03:47:36;;;;;;;;;9.00;8.00;;;;;5.96;59.32;100319.88;2091960;28;45681;-59
2021/11/29 03:48:37;;;;;;;;;9.50;9.50;;;;;5.95;59.84;100326.03;2092067;28;46843;-59
2021/11/29 03:49:37;;;;;;;;;10.25;10.25;;;;;5.94;59.59;100322.53;2091760;28;48430;-59
2021/11/29 03:50:38;;;;;;;;;12.50;10.00;;;;;5.94;59.87;100322.53;2092053;28;47183;-59
2021/11/29 03:51:39;;;;;;;;;8.25;8.25;;;;;5.95;59.39;100323.41;2092126;27;47816;-59
2021/11/29 03:52:39;;;;;;;;;14.20;10.00;;;;;5.95;59.55;100328.69;2091707;28;47514;-59
2021/11/29 03:53:40;;;;;;;;;11.50;10.00;;;;;5.96;59.94;100330.41;2092242;28;48147;-59
2021/11/29 03:54:41;;;;;;;;;13.00;12.25;;;;;5.97;60.13;100327.81;2098052;28;48459;-59
2021/11/29 03:55:41;;;;;;;;;15.00;9.00;;;;;5.97;60.17;100329.53;2090865;28;47785;-59
2021/11/29 03:56:41;;;;;;;;;9.50;8.75;;;;;5.98;59.71;100333.94;2099217;28;47971;-59
2021/11/29 03:57:42;;;;;;;;;11.25;10.50;;;;;5.99;59.90;100333.94;2087781;27;47233;-59
2021/11/29 03:58:43;;;;;;;;;13.50;13.00;;;;;6.00;59.70;100334.81;2083680;28;47072;-59
2021/11/29 03:59:43;;;;;;;;;9.25;9.25;;;;;6.00;59.60;100337.44;2091497;28;47965;-59
2021/11/29 04:00:44;;;;;;;;;13.25;12.00;;;;;6.00;59.60;100333.03;2099737;27;48142;-62
2021/11/29 04:01:45;;;;;;;;;15.00;11.50;;;;;6.01;60.09;100333.91;2108377;27;47638;-59
2021/11/29 04:02:46;;;;;;;;;10.00;8.80;;;;;6.01;60.11;100340.03;2091772;28;47169;-59
2021/11/29 04:03:46;;;;;;;;;7.75;7.75;;;;;6.02;59.99;100336.53;2092072;27;46158;-59
2021/11/29 04:04:47;;;;;;;;;12.75;11.50;;;;;6.03;59.79;100342.66;2091231;28;47920;-59
2021/11/29 04:05:49;;;;;;;;;13.25;12.00;;;;;6.02;59.51;100341.78;2091579;28;48147;-59
2021/11/29 04:06:49;;;;;;;;;12.00;10.00;;;;;6.04;59.92;100340.00;2091906;27;47097;-59
2021/11/29 04:07:50;;;;;;;;;10.25;10.25;;;;;6.04;59.66;100339.13;2092312;28;45653;-59
2021/11/29 04:08:51;;;;;;;;;12.50;9.75;;;;;6.03;60.02;100338.25;2091910;28;46235;-59
2021/11/29 04:09:51;;;;;;;;;9.33;9.00;;;;;6.05;60.08;100344.38;2092214;28;46364;-59
2021/11/29 04:10:53;;;;;;;;;14.25;13.00;;;;;6.04;60.01;100350.53;2091135;28;48106;-59
2021/11/29 04:11:55;;;;;;;;;9.40;8.80;;;;;6.03;59.58;100345.28;2091907;28;47084;-59
2021/11/29 04:12:56;;;;;;;;;10.00;10.00;;;;;6.02;59.80;100338.28;2091535;28;48165;-59
2021/11/29 04:13:57;;;;;;;;;7.33;7.33;;;;;6.01;59.80;100344.44;2091375;28;48588;-59
2021/11/29 04:14:57;;;;;;;;;10.00;10.00;;;;;6.01;60.00;100347.06;2091733;28;47259;-59
2021/11/29 04:15:58;;;;;;;;;7.25;7.25;;;;;6.01;59.89;100347.06;2093068;28;46243;-59
2021/11/29 04:16:59;;;;;;;;;9.25;8.50;;;;;6.01;59.84;100347.94;2093121;28;46063;-59
2021/11/29 04:17:59;;;;;;;;;9.00;9.00;;;;;6.00;60.08;100343.56;2092626;28;45128;-59
2021/11/29 04:19:00;;;;;;;;;9.00;9.00;;;;;6.01;59.89;100349.72;2092532;28;47535;-63
2021/11/29 04:20:02;;;;;;;;;8.25;7.75;;;;;6.00;59.77;100346.19;2092752;28;46926;-60
2021/11/29 04:21:05;;;;;;;;;13.20;13.20;;;;;6.00;60.08;100345.34;2092601;28;47495;-59
2021/11/29 04:22:05;;;;;;;;;8.00;8.00;;;;;6.00;60.08;100342.69;2092507;28;47220;-59
2021/11/29 04:23:06;;;;;;;;;10.00;10.00;;;;;5.98;60.16;100350.63;2092081;27;45388;-59
2021/11/29 04:24:07;;;;;;;;;11.00;10.50;;;;;6.00;59.79;100355.88;2092383;28;47088;-59
2021/11/29 04:25:10;;;;;;;;;11.33;9.33;;;;;5.98;60.28;100353.25;2091985;27;46225;-60
2021/11/29 04:26:13;;;;;;;;;10.20;10.00;;;;;5.99;59.94;100357.63;2091731;28;47886;-59
2021/11/29 04:27:15;;;;;;;;;10.20;9.60;;;;;5.97;59.96;100354.16;2091965;28;45348;-59
2021/11/29 04:28:15;;;;;;;;;15.00;10.20;;;;;5.98;59.64;100363.78;2091903;27;47079;-59
2021/11/29 04:29:19;;;;;;;;;32.50;30.50;;;;;5.97;59.56;100362.03;2108770;27;45621;-59
2021/11/29 04:30:23;;;;;;;;;33.60;30.00;;;;;5.97;60.25;100363.78;2108199;27;47201;-59
2021/11/29 04:31:24;;;;;;;;;20.20;19.20;;;;;5.96;60.16;100360.25;2099135;28;46906;-60
2021/11/29 04:32:24;;;;;;;;;15.00;14.00;;;;;5.97;60.05;100364.69;2092067;27;47653;-60
2021/11/29 04:33:25;;;;;;;;;10.00;10.00;;;;;5.98;60.25;100365.56;2091846;28;45345;-59
2021/11/29 04:34:25;;;;;;;;;10.50;10.50;;;;;5.98;60.02;100363.78;2092153;28;46731;-59
2021/11/29 04:35:27;;;;;;;;;8.25;8.25;;;;;5.98;59.76;100361.16;2091369;28;47583;-59
2021/11/29 04:36:28;;;;;;;;;13.00;10.00;;;;;5.99;59.73;100372.56;2083343;28;44973;-59
2021/11/29 04:37:29;;;;;;;;;9.20;9.20;;;;;5.99;60.20;100367.28;2082971;28;46948;-59
2021/11/29 04:38:30;;;;;;;;;9.00;9.00;;;;;5.97;59.82;100366.41;2091859;27;48154;-59
2021/11/29 04:39:31;;;;;;;;;9.50;9.50;;;;;5.97;59.93;100367.31;2091629;28;45623;-59
2021/11/29 04:40:32;;;;;;;;;8.60;8.40;;;;;5.96;59.79;100372.56;2092196;28;46449;-60
2021/11/29 04:41:33;;;;;;;;;10.50;9.00;;;;;5.97;59.98;100376.94;2091603;27;47115;-59
2021/11/29 04:42:34;;;;;;;;;7.00;7.00;;;;;5.96;60.00;100376.06;2088933;28;47369;-59
2021/11/29 04:43:35;;;;;;;;;9.20;9.00;;;;;5.95;60.29;100373.44;2090349;28;48317;-59
2021/11/29 04:44:35;;;;;;;;;7.00;5.25;;;;;5.94;59.83;100375.22;2092397;28;46053;-59